• Join FlightAware (Why Join?)
  • Login
  • US Flag 
09:30AM EDT


 

Airport Tracker/Info


-or-


 

Live Flight TrackerFlight Track Log ✈ SKW5207 ✈ 02-May-2012 ✈ KIAH - KABQ

Flight Track Log - Related Links

Times and Time Zones

All times are in EDT time to prevent confusion due to time zone crossing. See the SKW5207 flight status page for this flight to view local times or setup timezone preferences in your user account.

Time Position Orientation Groundspeed Altitude Reporting Facility
EDT Latitude Longitude Course Direction KTS MPH feet Rate Location/Type
11:00PM 30.2139 -97.0006 297° West 417 480 25,000  Level Houston Center
11:01PM 30.2694 -97.1258 297° West 424 488 25,600 780 Climbing Houston Center
11:02PM 30.3269 -97.2542 297° West 444 511 26,600 960 Climbing Houston Center
11:03PM 30.3842 -97.3822 298° West 450 518 27,600 1,020 Climbing Houston Center
11:04PM 30.4414 -97.5058 297° West 445 512 28,700 900 Climbing Houston Center
11:05PM 30.4906 -97.6194 297° West 439 505 29,500 900 Climbing Houston Center
11:06PM 30.5456 -97.7431 298° West 439 505 30,500 1,020 Climbing Houston Center
11:07PM 30.6025 -97.8672 297° West 439 505 31,600 1,020 Climbing Houston Center
11:08PM 30.6553 -97.9886 296° West 433 498 32,600 960 Climbing Houston Center
11:09PM 30.7078 -98.1125 298° West 433 498 33,600 960 Climbing Houston Center
11:10PM 30.7661 -98.2419 298° West 427 491 34,600 960 Climbing Houston Center
11:11PM 30.8189 -98.3589 296° West 420 483 35,600 1,020 Climbing Houston Center
11:12PM 30.8672 -98.4756 297° West 415 478 36,700 1,020 Climbing Houston Center
11:13PM 30.9194 -98.5928 297° West 410 472 37,700 600 Climbing Houston Center
11:14PM 30.9681 -98.7050 298° West 400 460 38,000 120 Climbing Houston Center
11:15PM 31.0183 -98.8175 297° West 400 460 38,000  Level Houston Center
11:16PM 31.0703 -98.9350 297° West 400 460 38,000  Level Houston Center
11:17PM 31.1203 -99.0500 296° West 400 460 38,000  Level Houston Center
11:18PM 31.1664 -99.1603 297° West 405 466 38,000  Level Houston Center
11:20PM 31.2728 -99.4039 296° West 406 467 38,000  Level Fort Worth Center
11:21PM 31.3228 -99.5242 297° West 411 473 38,000  Level Fort Worth Center
11:22PM 31.3769 -99.6494 295° West 411 473 38,000  Level Fort Worth Center
11:23PM 31.4231 -99.7675 298° West 409 471 38,000  Level Fort Worth Center
11:24PM 31.4769 -99.8881 296° West 409 471 38,000  Level Fort Worth Center
11:25PM 31.5308 -100.0164 297° West 414 476 38,000  Level Fort Worth Center
11:26PM 31.5825 -100.1372 295° West 423 487 38,000  Level Fort Worth Center
11:27PM 31.6339 -100.2656 295° West 430 495 38,000  Level Fort Worth Center
11:28PM 31.6833 -100.3917 296° West 430 495 38,000  Level Fort Worth Center
11:29PM 31.7364 -100.5181 297° West 430 495 38,000 -60 Level Fort Worth Center
11:30PM 31.7956 -100.6544 296° West 430 495 37,900  Descending Fort Worth Center
11:31PM 31.8447 -100.7736 297° West 430 495 38,000  Climbing Fort Worth Center
11:32PM 31.9017 -100.9028 295° West 430 495 38,000  Level Fort Worth Center
11:33PM 31.9525 -101.0297 295° West 430 495 38,000  Level Fort Worth Center
11:34PM 32.0031 -101.1564 296° West 430 495 38,000  Level Fort Worth Center
11:35PM 32.0536 -101.2786 296° West 430 495 38,000  Level Fort Worth Center
11:36PM 32.1058 -101.4058 295° West 430 495 38,000  Level Fort Worth Center
11:37PM 32.1542 -101.5308 293° West 430 495 38,000  Level Fort Worth Center
11:38PM 32.2000 -101.6606 296° West 420 483 38,000  Level Fort Worth Center
11:39PM 32.2519 -101.7881 295° West 420 483 38,000  Level Fort Worth Center
11:40PM 32.3017 -101.9136 296° West 428 493 38,000  Level Fort Worth Center
11:41PM 32.3533 -102.0414 295° West 428 493 38,000  Level Fort Worth Center
11:42PM 32.4028 -102.1694 296° West 428 493 38,000  Level Fort Worth Center
11:43PM 32.4583 -102.3028 295° West 433 498 38,000  Level Fort Worth Center
11:44PM 32.5097 -102.4311 294° West 438 504 38,000  Level Fort Worth Center
11:45PM 32.5622 -102.5744 297° West 433 498 38,000  Level Fort Worth Center
11:46PM 32.6097 -102.6858 294° West 427 491 38,000  Level Fort Worth Center
11:47PM 32.6586 -102.8144 295° West 427 491 38,000  Level Fort Worth Center
11:48PM 32.7092 -102.9458 294° West 440 506 38,000  Level Fort Worth Center
11:50PM 32.7811 -103.1417 296° West 426 490 38,000  Level Albuquerque Center
11:51PM 32.8336 -103.2675 294° West 426 490 38,000  Level Albuquerque Center
11:52PM 32.8817 -103.3939 296° West 421 484 38,000  Level Albuquerque Center
11:53PM 32.9314 -103.5175 294° West 421 484 38,000  Level Albuquerque Center
11:54PM 32.9794 -103.6467 294° West 421 484 38,000  Level Albuquerque Center
11:55PM 33.0294 -103.7831 291° West 421 484 38,000  Level Albuquerque Center
11:56PM 33.0731 -103.9175 303° West 428 493 38,000  Level Albuquerque Center
11:57PM 33.1389 -104.0364 312° West 434 499 38,000  Level Albuquerque Center
11:58PM 33.2233 -104.1472 313° West 445 512 38,000  Level Albuquerque Center
11:59PM 33.3011 -104.2461 313° West 455 524 38,000  Level Albuquerque Center
12:00AM 33.3936 -104.3644 313° West 450 518 38,000  Level Albuquerque Center
12:01AM 33.4733 -104.4661 309° West 457 526 38,000  Level Albuquerque Center
12:02AM 33.5533 -104.5831 312° West 457 526 38,000  Level Albuquerque Center
12:03AM 33.6458 -104.7072 312° West 456 525 38,000  Level Albuquerque Center
12:04AM 33.7189 -104.8047 312° West 451 519 38,000  Level Albuquerque Center
12:05AM 33.8133 -104.9292 312° West 451 519 38,000  Level Albuquerque Center
12:06AM 33.8883 -105.0297 312° West 455 524 38,000 -300 Level Albuquerque Center
12:07AM 33.9825 -105.1547 310° West 455 524 37,500 -720 Descending Albuquerque Center
12:08AM 34.0553 -105.2581 311° West 455 524 36,600 -960 Descending Albuquerque Center
12:09AM 34.1472 -105.3864 309° West 455 524 35,600 -1,020 Descending Albuquerque Center
12:10AM 34.2286 -105.5100 307° West 460 529 34,600 -1,080 Descending Albuquerque Center
12:11AM 34.3033 -105.6289 307° West 466 536 33,500 -1,500 Descending Albuquerque Center
12:12AM 34.3864 -105.7606 307° West 466 536 31,700 -2,460 Descending Albuquerque Center
12:13AM 34.4611 -105.8825 309° West 466 536 28,600 -3,060 Descending Albuquerque Center
12:14AM 34.5419 -106.0022 304° West 468 539 25,600 -3,000 Descending Albuquerque Center
12:15AM 34.5992 -106.1072 308° West 443 510 23,000 -3,000 Descending Albuquerque Center
12:16AM 34.6778 -106.2297 307° West 450 518 20,000 -2,880 Descending Albuquerque Center
12:17AM 34.7475 -106.3425 301° West 432 497 17,200 -2,460 Descending Albuquerque Center
12:18AM 34.8028 -106.4556 304° West 372 428 15,100 -2,640 Descending Albuquerque Center
12:19AM 34.8597 -106.5589 304° West 359 413 11,900 -2,580 Descending Albuquerque Center
12:20AM 34.9125 -106.6544 304° West 333 383 9,900 -1,440 Descending Albuquerque Center
12:21AM 34.9506 -106.7225 45° Northeast 228 262 9,000 -1,320 Descending Albuquerque Center
12:22AM 34.9836 -106.6817 49° Northeast 184 212 7,300 -1,740 Descending Albuquerque Center
12:23AM 35.0147 -106.6383 49° Northeast 164 189 5,500 -1,800 Descending Albuquerque Center